sensor_id;sensor_type;location;lat;lon;timestamp;P1;durP1;ratioP1;P2;durP2;ratioP2
4359;SDS011;2193;47.980;7.660;2022-09-29T00:00:15;1.90;;;1.80;;
4359;SDS011;2193;47.980;7.660;2022-09-29T00:02:40;2.30;;;2.03;;
4359;SDS011;2193;47.980;7.660;2022-09-29T00:05:06;4.40;;;2.23;;
4359;SDS011;2193;47.980;7.660;2022-09-29T00:07:31;2.30;;;1.90;;
4359;SDS011;2193;47.980;7.660;2022-09-29T00:09:56;5.40;;;2.43;;
4359;SDS011;2193;47.980;7.660;2022-09-29T00:12:22;7.90;;;2.40;;
4359;SDS011;2193;47.980;7.660;2022-09-29T00:14:47;6.40;;;2.00;;
4359;SDS011;2193;47.980;7.660;2022-09-29T00:17:12;2.40;;;2.20;;
4359;SDS011;2193;47.980;7.660;2022-09-29T00:19:38;2.10;;;1.90;;
4359;SDS011;2193;47.980;7.660;2022-09-29T00:22:03;2.30;;;2.10;;
4359;SDS011;2193;47.980;7.660;2022-09-29T00:24:29;5.47;;;2.17;;
4359;SDS011;2193;47.980;7.660;2022-09-29T00:26:54;9.47;;;2.47;;
4359;SDS011;2193;47.980;7.660;2022-09-29T00:29:20;3.93;;;2.27;;
4359;SDS011;2193;47.980;7.660;2022-09-29T00:31:45;4.40;;;2.03;;
4359;SDS011;2193;47.980;7.660;2022-09-29T00:34:10;5.80;;;2.27;;
4359;SDS011;2193;47.980;7.660;2022-09-29T00:36:36;6.30;;;1.90;;
4359;SDS011;2193;47.980;7.660;2022-09-29T00:39:01;3.90;;;2.30;;
4359;SDS011;2193;47.980;7.660;2022-09-29T00:41:31;5.53;;;2.27;;
4359;SDS011;2193;47.980;7.660;2022-09-29T00:44:01;4.30;;;2.27;;
4359;SDS011;2193;47.980;7.660;2022-09-29T00:46:32;3.00;;;2.00;;
4359;SDS011;2193;47.980;7.660;2022-09-29T00:48:59;4.63;;;2.37;;
4359;SDS011;2193;47.980;7.660;2022-09-29T00:51:25;3.10;;;2.20;;
4359;SDS011;2193;47.980;7.660;2022-09-29T00:53:51;3.70;;;1.90;;
4359;SDS011;2193;47.980;7.660;2022-09-29T00:56:17;4.17;;;2.30;;
4359;SDS011;2193;47.980;7.660;2022-09-29T00:58:43;4.40;;;2.37;;
4359;SDS011;2193;47.980;7.660;2022-09-29T01:01:12;5.60;;;2.20;;
4359;SDS011;2193;47.980;7.660;2022-09-29T01:03:38;3.70;;;2.13;;
4359;SDS011;2193;47.980;7.660;2022-09-29T01:06:05;6.10;;;2.10;;
4359;SDS011;2193;47.980;7.660;2022-09-29T01:11:28;8.10;;;2.67;;
4359;SDS011;2193;47.980;7.660;2022-09-29T01:13:54;6.70;;;2.83;;
4359;SDS011;2193;47.980;7.660;2022-09-29T01:16:22;3.97;;;2.47;;
4359;SDS011;2193;47.980;7.660;2022-09-29T01:18:47;2.37;;;2.17;;
4359;SDS011;2193;47.980;7.660;2022-09-29T01:31:33;10.33;;;2.87;;
4359;SDS011;2193;47.980;7.660;2022-09-29T01:39:09;5.03;;;2.70;;
4359;SDS011;2193;47.980;7.660;2022-09-29T01:44:28;3.73;;;3.10;;
4359;SDS011;2193;47.980;7.660;2022-09-29T01:47:07;5.13;;;2.70;;
4359;SDS011;2193;47.980;7.660;2022-09-29T01:49:35;4.57;;;2.50;;
4359;SDS011;2193;47.980;7.660;2022-09-29T01:52:02;4.43;;;2.43;;
4359;SDS011;2193;47.980;7.660;2022-09-29T01:57:00;3.90;;;2.57;;
4359;SDS011;2193;47.980;7.660;2022-09-29T01:59:34;6.20;;;2.70;;
4359;SDS011;2193;47.980;7.660;2022-09-29T02:02:01;6.00;;;2.40;;
4359;SDS011;2193;47.980;7.660;2022-09-29T02:04:33;3.87;;;2.50;;
4359;SDS011;2193;47.980;7.660;2022-09-29T02:07:02;5.07;;;2.60;;
4359;SDS011;2193;47.980;7.660;2022-09-29T02:09:32;3.70;;;2.60;;
4359;SDS011;2193;47.980;7.660;2022-09-29T02:11:58;5.20;;;2.90;;
4359;SDS011;2193;47.980;7.660;2022-09-29T02:14:26;5.67;;;3.07;;
4359;SDS011;2193;47.980;7.660;2022-09-29T02:19:48;5.90;;;2.60;;
4359;SDS011;2193;47.980;7.660;2022-09-29T02:22:14;3.90;;;2.67;;
4359;SDS011;2193;47.980;7.660;2022-09-29T02:24:40;8.73;;;3.33;;
4359;SDS011;2193;47.980;7.660;2022-09-29T02:27:06;6.17;;;2.57;;
4359;SDS011;2193;47.980;7.660;2022-09-29T02:29:31;6.80;;;2.47;;
4359;SDS011;2193;47.980;7.660;2022-09-29T02:31:57;6.60;;;2.90;;
4359;SDS011;2193;47.980;7.660;2022-09-29T02:34:26;3.70;;;2.37;;
4359;SDS011;2193;47.980;7.660;2022-09-29T02:55:27;4.73;;;2.73;;
4359;SDS011;2193;47.980;7.660;2022-09-29T02:57:58;2.73;;;2.53;;
4359;SDS011;2193;47.980;7.660;2022-09-29T03:00:25;5.43;;;3.13;;
4359;SDS011;2193;47.980;7.660;2022-09-29T03:02:51;4.47;;;2.70;;
4359;SDS011;2193;47.980;7.660;2022-09-29T03:05:17;4.20;;;2.77;;
4359;SDS011;2193;47.980;7.660;2022-09-29T03:07:43;6.17;;;2.77;;
4359;SDS011;2193;47.980;7.660;2022-09-29T03:10:09;4.63;;;3.10;;
4359;SDS011;2193;47.980;7.660;2022-09-29T03:12:34;5.00;;;3.10;;
4359;SDS011;2193;47.980;7.660;2022-09-29T03:15:00;5.00;;;3.10;;
4359;SDS011;2193;47.980;7.660;2022-09-29T03:17:25;7.43;;;3.37;;
4359;SDS011;2193;47.980;7.660;2022-09-29T03:19:50;5.90;;;3.40;;
4359;SDS011;2193;47.980;7.660;2022-09-29T03:22:15;6.70;;;3.40;;
4359;SDS011;2193;47.980;7.660;2022-09-29T03:24:42;8.20;;;3.67;;
4359;SDS011;2193;47.980;7.660;2022-09-29T03:27:07;10.87;;;3.30;;
4359;SDS011;2193;47.980;7.660;2022-09-29T03:29:34;11.77;;;3.93;;
4359;SDS011;2193;47.980;7.660;2022-09-29T03:31:59;7.47;;;3.30;;
4359;SDS011;2193;47.980;7.660;2022-09-29T03:34:24;4.53;;;2.90;;
4359;SDS011;2193;47.980;7.660;2022-09-29T03:36:50;9.43;;;3.50;;
4359;SDS011;2193;47.980;7.660;2022-09-29T03:39:15;6.73;;;3.70;;
4359;SDS011;2193;47.980;7.660;2022-09-29T03:41:40;6.10;;;3.53;;
4359;SDS011;2193;47.980;7.660;2022-09-29T03:44:05;8.00;;;3.33;;
4359;SDS011;2193;47.980;7.660;2022-09-29T03:46:31;8.63;;;4.30;;
4359;SDS011;2193;47.980;7.660;2022-09-29T03:48:56;5.77;;;3.20;;
4359;SDS011;2193;47.980;7.660;2022-09-29T03:51:22;9.63;;;4.00;;
4359;SDS011;2193;47.980;7.660;2022-09-29T03:53:47;13.87;;;4.80;;
4359;SDS011;2193;47.980;7.660;2022-09-29T03:56:12;7.97;;;4.30;;
4359;SDS011;2193;47.980;7.660;2022-09-29T03:58:38;6.30;;;4.57;;
4359;SDS011;2193;47.980;7.660;2022-09-29T04:01:03;6.33;;;4.90;;
4359;SDS011;2193;47.980;7.660;2022-09-29T04:03:28;9.03;;;4.77;;
4359;SDS011;2193;47.980;7.660;2022-09-29T04:05:53;9.43;;;5.40;;
4359;SDS011;2193;47.980;7.660;2022-09-29T04:08:19;8.23;;;5.30;;
4359;SDS011;2193;47.980;7.660;2022-09-29T04:10:47;9.27;;;5.20;;
4359;SDS011;2193;47.980;7.660;2022-09-29T04:13:12;11.00;;;4.73;;
4359;SDS011;2193;47.980;7.660;2022-09-29T04:15:37;10.43;;;7.13;;
4359;SDS011;2193;47.980;7.660;2022-09-29T04:18:03;10.20;;;5.83;;
4359;SDS011;2193;47.980;7.660;2022-09-29T04:20:28;8.73;;;5.43;;
4359;SDS011;2193;47.980;7.660;2022-09-29T04:22:54;7.97;;;5.00;;
4359;SDS011;2193;47.980;7.660;2022-09-29T04:25:20;6.40;;;4.80;;
4359;SDS011;2193;47.980;7.660;2022-09-29T04:27:48;10.20;;;5.50;;
4359;SDS011;2193;47.980;7.660;2022-09-29T04:30:13;8.53;;;4.80;;
4359;SDS011;2193;47.980;7.660;2022-09-29T04:32:39;8.33;;;5.43;;
4359;SDS011;2193;47.980;7.660;2022-09-29T04:35:04;10.00;;;5.20;;
4359;SDS011;2193;47.980;7.660;2022-09-29T04:37:30;6.30;;;5.60;;
4359;SDS011;2193;47.980;7.660;2022-09-29T04:39:55;10.07;;;5.30;;
4359;SDS011;2193;47.980;7.660;2022-09-29T04:42:20;7.93;;;5.33;;
4359;SDS011;2193;47.980;7.660;2022-09-29T04:44:46;8.43;;;4.87;;
4359;SDS011;2193;47.980;7.660;2022-09-29T04:47:11;7.53;;;4.70;;
4359;SDS011;2193;47.980;7.660;2022-09-29T04:49:36;8.17;;;5.10;;
4359;SDS011;2193;47.980;7.660;2022-09-29T04:52:02;8.23;;;5.10;;
4359;SDS011;2193;47.980;7.660;2022-09-29T04:54:31;6.07;;;5.00;;
4359;SDS011;2193;47.980;7.660;2022-09-29T04:56:56;10.83;;;5.07;;
4359;SDS011;2193;47.980;7.660;2022-09-29T04:59:21;8.47;;;4.90;;
4359;SDS011;2193;47.980;7.660;2022-09-29T05:01:47;9.40;;;5.10;;
4359;SDS011;2193;47.980;7.660;2022-09-29T05:04:12;7.87;;;4.87;;
4359;SDS011;2193;47.980;7.660;2022-09-29T05:06:38;7.80;;;5.20;;
4359;SDS011;2193;47.980;7.660;2022-09-29T05:09:06;7.87;;;5.03;;
4359;SDS011;2193;47.980;7.660;2022-09-29T05:11:31;7.30;;;4.93;;
4359;SDS011;2193;47.980;7.660;2022-09-29T05:13:57;8.70;;;5.23;;
4359;SDS011;2193;47.980;7.660;2022-09-29T05:16:22;8.10;;;4.30;;
4359;SDS011;2193;47.980;7.660;2022-09-29T05:18:48;7.53;;;3.93;;
4359;SDS011;2193;47.980;7.660;2022-09-29T05:21:13;6.47;;;4.30;;
4359;SDS011;2193;47.980;7.660;2022-09-29T05:23:39;6.43;;;4.20;;
4359;SDS011;2193;47.980;7.660;2022-09-29T05:26:06;10.20;;;4.10;;
4359;SDS011;2193;47.980;7.660;2022-09-29T05:28:33;5.90;;;3.50;;
4359;SDS011;2193;47.980;7.660;2022-09-29T05:31:03;5.50;;;3.70;;
4359;SDS011;2193;47.980;7.660;2022-09-29T05:33:28;6.47;;;4.20;;
4359;SDS011;2193;47.980;7.660;2022-09-29T05:35:54;7.73;;;3.90;;
4359;SDS011;2193;47.980;7.660;2022-09-29T05:38:19;4.47;;;3.70;;
4359;SDS011;2193;47.980;7.660;2022-09-29T05:40:44;6.70;;;4.10;;
4359;SDS011;2193;47.980;7.660;2022-09-29T05:43:10;5.93;;;3.40;;
4359;SDS011;2193;47.980;7.660;2022-09-29T05:45:35;5.23;;;3.90;;
4359;SDS011;2193;47.980;7.660;2022-09-29T05:48:00;5.50;;;3.60;;
4359;SDS011;2193;47.980;7.660;2022-09-29T05:50:25;5.97;;;3.77;;
4359;SDS011;2193;47.980;7.660;2022-09-29T05:52:51;10.30;;;4.60;;
4359;SDS011;2193;47.980;7.660;2022-09-29T05:55:16;6.10;;;4.10;;
4359;SDS011;2193;47.980;7.660;2022-09-29T05:57:44;11.10;;;6.23;;
4359;SDS011;2193;47.980;7.660;2022-09-29T06:00:11;6.67;;;4.67;;
4359;SDS011;2193;47.980;7.660;2022-09-29T06:02:36;7.37;;;3.60;;
4359;SDS011;2193;47.980;7.660;2022-09-29T06:05:01;4.97;;;3.73;;
4359;SDS011;2193;47.980;7.660;2022-09-29T06:07:27;6.93;;;4.30;;
4359;SDS011;2193;47.980;7.660;2022-09-29T06:09:52;7.03;;;4.40;;
4359;SDS011;2193;47.980;7.660;2022-09-29T06:12:17;6.77;;;5.03;;
4359;SDS011;2193;47.980;7.660;2022-09-29T06:14:42;16.40;;;5.70;;
4359;SDS011;2193;47.980;7.660;2022-09-29T06:17:08;7.60;;;5.63;;
4359;SDS011;2193;47.980;7.660;2022-09-29T06:19:33;9.03;;;6.10;;
4359;SDS011;2193;47.980;7.660;2022-09-29T06:21:58;9.73;;;5.50;;
4359;SDS011;2193;47.980;7.660;2022-09-29T06:24:23;8.10;;;6.20;;
4359;SDS011;2193;47.980;7.660;2022-09-29T06:26:48;15.13;;;7.80;;
4359;SDS011;2193;47.980;7.660;2022-09-29T06:29:13;17.63;;;11.53;;
4359;SDS011;2193;47.980;7.660;2022-09-29T06:31:39;20.10;;;12.80;;
4359;SDS011;2193;47.980;7.660;2022-09-29T06:34:05;15.00;;;9.60;;
4359;SDS011;2193;47.980;7.660;2022-09-29T06:36:31;13.40;;;9.33;;
4359;SDS011;2193;47.980;7.660;2022-09-29T06:39:16;16.23;;;10.63;;
4359;SDS011;2193;47.980;7.660;2022-09-29T06:41:41;13.07;;;9.50;;
4359;SDS011;2193;47.980;7.660;2022-09-29T06:44:12;11.70;;;7.77;;
4359;SDS011;2193;47.980;7.660;2022-09-29T06:46:37;10.50;;;7.27;;
4359;SDS011;2193;47.980;7.660;2022-09-29T06:49:02;14.43;;;8.53;;
4359;SDS011;2193;47.980;7.660;2022-09-29T06:51:28;18.10;;;10.83;;
4359;SDS011;2193;47.980;7.660;2022-09-29T06:53:53;18.50;;;10.43;;
4359;SDS011;2193;47.980;7.660;2022-09-29T06:56:19;17.60;;;9.77;;
4359;SDS011;2193;47.980;7.660;2022-09-29T06:58:44;18.93;;;8.47;;
4359;SDS011;2193;47.980;7.660;2022-09-29T07:01:10;13.83;;;8.00;;
4359;SDS011;2193;47.980;7.660;2022-09-29T07:03:35;15.73;;;7.10;;
4359;SDS011;2193;47.980;7.660;2022-09-29T07:06:02;13.47;;;7.33;;
4359;SDS011;2193;47.980;7.660;2022-09-29T07:08:27;12.50;;;7.43;;
4359;SDS011;2193;47.980;7.660;2022-09-29T07:10:52;11.93;;;5.83;;
4359;SDS011;2193;47.980;7.660;2022-09-29T07:13:18;8.63;;;4.87;;
4359;SDS011;2193;47.980;7.660;2022-09-29T07:15:44;10.80;;;4.80;;
4359;SDS011;2193;47.980;7.660;2022-09-29T07:18:12;7.87;;;5.20;;
4359;SDS011;2193;47.980;7.660;2022-09-29T07:20:37;10.30;;;5.30;;
4359;SDS011;2193;47.980;7.660;2022-09-29T07:23:03;9.57;;;4.43;;
4359;SDS011;2193;47.980;7.660;2022-09-29T07:25:28;9.40;;;5.73;;
4359;SDS011;2193;47.980;7.660;2022-09-29T07:27:54;9.70;;;5.83;;
4359;SDS011;2193;47.980;7.660;2022-09-29T07:30:19;10.20;;;5.80;;
4359;SDS011;2193;47.980;7.660;2022-09-29T07:32:44;9.30;;;5.67;;
4359;SDS011;2193;47.980;7.660;2022-09-29T07:35:10;6.10;;;4.83;;
4359;SDS011;2193;47.980;7.660;2022-09-29T07:37:35;10.20;;;5.70;;
4359;SDS011;2193;47.980;7.660;2022-09-29T07:40:00;14.57;;;5.60;;
4359;SDS011;2193;47.980;7.660;2022-09-29T07:42:29;15.40;;;6.77;;
4359;SDS011;2193;47.980;7.660;2022-09-29T07:44:54;12.07;;;6.10;;
4359;SDS011;2193;47.980;7.660;2022-09-29T07:47:19;9.13;;;5.90;;
4359;SDS011;2193;47.980;7.660;2022-09-29T07:49:45;9.80;;;5.30;;
4359;SDS011;2193;47.980;7.660;2022-09-29T07:52:11;6.73;;;5.30;;
4359;SDS011;2193;47.980;7.660;2022-09-29T07:54:36;14.37;;;6.60;;
4359;SDS011;2193;47.980;7.660;2022-09-29T07:57:01;14.10;;;6.50;;
4359;SDS011;2193;47.980;7.660;2022-09-29T07:59:28;9.80;;;5.90;;
4359;SDS011;2193;47.980;7.660;2022-09-29T08:01:53;6.67;;;4.50;;
4359;SDS011;2193;47.980;7.660;2022-09-29T08:04:18;8.73;;;5.37;;
4359;SDS011;2193;47.980;7.660;2022-09-29T08:06:44;7.80;;;4.73;;
4359;SDS011;2193;47.980;7.660;2022-09-29T08:09:10;8.53;;;4.50;;
4359;SDS011;2193;47.980;7.660;2022-09-29T08:11:36;10.53;;;3.97;;
4359;SDS011;2193;47.980;7.660;2022-09-29T08:14:02;6.03;;;3.30;;
4359;SDS011;2193;47.980;7.660;2022-09-29T08:16:27;5.53;;;3.83;;
4359;SDS011;2193;47.980;7.660;2022-09-29T08:18:52;4.37;;;3.67;;
4359;SDS011;2193;47.980;7.660;2022-09-29T08:21:18;6.17;;;4.27;;
4359;SDS011;2193;47.980;7.660;2022-09-29T08:23:43;4.90;;;3.60;;
4359;SDS011;2193;47.980;7.660;2022-09-29T08:26:09;4.60;;;3.60;;
4359;SDS011;2193;47.980;7.660;2022-09-29T08:28:35;6.37;;;3.20;;
4359;SDS011;2193;47.980;7.660;2022-09-29T08:31:04;4.80;;;3.40;;
4359;SDS011;2193;47.980;7.660;2022-09-29T08:33:29;4.00;;;3.00;;
4359;SDS011;2193;47.980;7.660;2022-09-29T08:35:58;6.37;;;4.30;;
4359;SDS011;2193;47.980;7.660;2022-09-29T08:38:24;4.07;;;3.57;;
4359;SDS011;2193;47.980;7.660;2022-09-29T08:40:50;7.47;;;4.03;;
4359;SDS011;2193;47.980;7.660;2022-09-29T08:43:17;5.20;;;3.53;;
4359;SDS011;2193;47.980;7.660;2022-09-29T08:46:06;6.03;;;3.27;;
4359;SDS011;2193;47.980;7.660;2022-09-29T08:48:31;6.30;;;3.90;;
4359;SDS011;2193;47.980;7.660;2022-09-29T08:51:04;6.97;;;3.70;;
4359;SDS011;2193;47.980;7.660;2022-09-29T08:53:31;6.77;;;3.30;;
4359;SDS011;2193;47.980;7.660;2022-09-29T08:55:59;7.73;;;3.47;;
4359;SDS011;2193;47.980;7.660;2022-09-29T08:58:25;5.37;;;3.50;;
4359;SDS011;2193;47.980;7.660;2022-09-29T09:13:44;3.47;;;2.13;;
4359;SDS011;2193;47.980;7.660;2022-09-29T09:18:51;3.23;;;2.33;;
4359;SDS011;2193;47.980;7.660;2022-09-29T09:23:48;3.57;;;2.57;;
4359;SDS011;2193;47.980;7.660;2022-09-29T09:26:16;6.90;;;2.17;;
4359;SDS011;2193;47.980;7.660;2022-09-29T09:28:44;2.87;;;2.53;;
4359;SDS011;2193;47.980;7.660;2022-09-29T09:39:17;3.03;;;2.50;;
4359;SDS011;2193;47.980;7.660;2022-09-29T09:41:44;4.70;;;2.57;;
4359;SDS011;2193;47.980;7.660;2022-09-29T09:44:16;3.17;;;2.03;;
4359;SDS011;2193;47.980;7.660;2022-09-29T09:46:48;3.67;;;2.30;;
4359;SDS011;2193;47.980;7.660;2022-09-29T09:49:16;4.70;;;2.60;;
4359;SDS011;2193;47.980;7.660;2022-09-29T09:52:03;3.10;;;2.13;;
4359;SDS011;2193;47.980;7.660;2022-09-29T09:54:30;4.00;;;2.10;;
4359;SDS011;2193;47.980;7.660;2022-09-29T10:01:47;3.97;;;2.43;;
4359;SDS011;2193;47.980;7.660;2022-09-29T10:04:12;6.70;;;2.90;;
4359;SDS011;2193;47.980;7.660;2022-09-29T10:06:38;4.03;;;2.20;;
4359;SDS011;2193;47.980;7.660;2022-09-29T10:09:04;6.20;;;2.70;;
4359;SDS011;2193;47.980;7.660;2022-09-29T10:11:29;2.53;;;2.30;;
4359;SDS011;2193;47.980;7.660;2022-09-29T10:13:57;3.33;;;2.27;;
4359;SDS011;2193;47.980;7.660;2022-09-29T10:16:27;7.80;;;2.27;;
4359;SDS011;2193;47.980;7.660;2022-09-29T10:18:54;4.83;;;2.13;;
4359;SDS011;2193;47.980;7.660;2022-09-29T10:23:56;3.70;;;2.33;;
4359;SDS011;2193;47.980;7.660;2022-09-29T10:31:16;2.47;;;1.93;;
4359;SDS011;2193;47.980;7.660;2022-09-29T10:33:49;3.43;;;1.87;;
4359;SDS011;2193;47.980;7.660;2022-09-29T10:36:15;3.67;;;2.17;;
4359;SDS011;2193;47.980;7.660;2022-09-29T10:38:44;4.93;;;1.80;;
4359;SDS011;2193;47.980;7.660;2022-09-29T10:41:10;2.87;;;1.77;;
4359;SDS011;2193;47.980;7.660;2022-09-29T10:46:01;2.80;;;2.13;;
4359;SDS011;2193;47.980;7.660;2022-09-29T10:48:27;2.10;;;1.90;;
4359;SDS011;2193;47.980;7.660;2022-09-29T10:51:13;3.20;;;2.00;;
4359;SDS011;2193;47.980;7.660;2022-09-29T10:53:40;2.60;;;1.90;;
4359;SDS011;2193;47.980;7.660;2022-09-29T10:56:19;3.43;;;2.17;;
4359;SDS011;2193;47.980;7.660;2022-09-29T10:58:58;3.47;;;1.90;;
4359;SDS011;2193;47.980;7.660;2022-09-29T11:01:24;2.00;;;1.80;;
4359;SDS011;2193;47.980;7.660;2022-09-29T11:06:23;4.00;;;2.20;;
4359;SDS011;2193;47.980;7.660;2022-09-29T11:09:03;5.93;;;2.40;;
4359;SDS011;2193;47.980;7.660;2022-09-29T11:11:30;2.60;;;2.40;;
4359;SDS011;2193;47.980;7.660;2022-09-29T11:13:56;4.90;;;2.93;;
4359;SDS011;2193;47.980;7.660;2022-09-29T11:16:25;6.27;;;3.33;;
4359;SDS011;2193;47.980;7.660;2022-09-29T11:18:50;10.90;;;4.30;;
4359;SDS011;2193;47.980;7.660;2022-09-29T11:21:34;5.77;;;4.93;;
4359;SDS011;2193;47.980;7.660;2022-09-29T11:32:00;5.50;;;4.53;;
4359;SDS011;2193;47.980;7.660;2022-09-29T11:37:20;4.00;;;3.60;;
4359;SDS011;2193;47.980;7.660;2022-09-29T11:39:54;3.43;;;2.67;;
4359;SDS011;2193;47.980;7.660;2022-09-29T11:44:57;3.60;;;2.17;;
4359;SDS011;2193;47.980;7.660;2022-09-29T11:47:34;2.47;;;2.07;;
4359;SDS011;2193;47.980;7.660;2022-09-29T12:13:57;2.13;;;1.60;;
4359;SDS011;2193;47.980;7.660;2022-09-29T12:16:29;2.80;;;1.47;;
4359;SDS011;2193;47.980;7.660;2022-09-29T12:19:08;1.73;;;1.30;;
4359;SDS011;2193;47.980;7.660;2022-09-29T12:21:36;1.30;;;1.20;;
4359;SDS011;2193;47.980;7.660;2022-09-29T12:24:04;2.00;;;1.90;;
4359;SDS011;2193;47.980;7.660;2022-09-29T12:26:30;3.70;;;2.63;;
4359;SDS011;2193;47.980;7.660;2022-09-29T12:31:38;3.47;;;1.77;;
4359;SDS011;2193;47.980;7.660;2022-09-29T12:34:19;3.13;;;1.80;;
4359;SDS011;2193;47.980;7.660;2022-09-29T12:36:50;2.43;;;1.83;;
4359;SDS011;2193;47.980;7.660;2022-09-29T12:44:42;2.23;;;2.03;;
4359;SDS011;2193;47.980;7.660;2022-09-29T12:47:14;6.20;;;1.73;;
4359;SDS011;2193;47.980;7.660;2022-09-29T12:52:14;4.30;;;1.47;;
4359;SDS011;2193;47.980;7.660;2022-09-29T12:54:47;6.27;;;1.57;;
4359;SDS011;2193;47.980;7.660;2022-09-29T12:57:15;1.43;;;1.30;;
4359;SDS011;2193;47.980;7.660;2022-09-29T13:02:58;1.87;;;1.40;;
4359;SDS011;2193;47.980;7.660;2022-09-29T13:13:03;1.60;;;1.20;;
4359;SDS011;2193;47.980;7.660;2022-09-29T13:28:35;1.60;;;1.50;;
4359;SDS011;2193;47.980;7.660;2022-09-29T13:31:06;3.07;;;1.70;;
4359;SDS011;2193;47.980;7.660;2022-09-29T13:33:32;2.47;;;1.77;;
4359;SDS011;2193;47.980;7.660;2022-09-29T13:35:58;1.50;;;1.40;;
4359;SDS011;2193;47.980;7.660;2022-09-29T13:38:34;1.53;;;1.43;;
4359;SDS011;2193;47.980;7.660;2022-09-29T13:41:11;4.10;;;1.70;;
4359;SDS011;2193;47.980;7.660;2022-09-29T13:46:24;3.40;;;3.10;;
4359;SDS011;2193;47.980;7.660;2022-09-29T13:48:50;8.90;;;3.70;;
4359;SDS011;2193;47.980;7.660;2022-09-29T13:51:24;4.10;;;1.60;;
4359;SDS011;2193;47.980;7.660;2022-09-29T13:54:50;1.50;;;1.30;;
4359;SDS011;2193;47.980;7.660;2022-09-29T13:56:48;1.67;;;1.37;;
4359;SDS011;2193;47.980;7.660;2022-09-29T13:59:14;1.43;;;1.30;;
4359;SDS011;2193;47.980;7.660;2022-09-29T14:01:42;1.80;;;1.50;;
4359;SDS011;2193;47.980;7.660;2022-09-29T14:06:51;3.80;;;1.40;;
4359;SDS011;2193;47.980;7.660;2022-09-29T14:09:22;1.40;;;1.23;;
4359;SDS011;2193;47.980;7.660;2022-09-29T14:11:48;1.80;;;1.30;;
4359;SDS011;2193;47.980;7.660;2022-09-29T14:14:22;2.40;;;1.50;;
4359;SDS011;2193;47.980;7.660;2022-09-29T14:21:49;3.83;;;1.77;;
4359;SDS011;2193;47.980;7.660;2022-09-29T14:29:50;2.47;;;1.70;;
4359;SDS011;2193;47.980;7.660;2022-09-29T14:32:18;1.30;;;1.10;;
4359;SDS011;2193;47.980;7.660;2022-09-29T14:34:45;1.63;;;1.30;;
4359;SDS011;2193;47.980;7.660;2022-09-29T14:37:16;1.67;;;1.47;;
4359;SDS011;2193;47.980;7.660;2022-09-29T14:39:43;2.47;;;1.40;;
4359;SDS011;2193;47.980;7.660;2022-09-29T14:42:29;1.50;;;1.40;;
4359;SDS011;2193;47.980;7.660;2022-09-29T14:44:54;4.00;;;1.80;;
4359;SDS011;2193;47.980;7.660;2022-09-29T14:47:45;2.07;;;1.90;;
4359;SDS011;2193;47.980;7.660;2022-09-29T14:56:15;4.23;;;1.63;;
4359;SDS011;2193;47.980;7.660;2022-09-29T14:58:46;1.40;;;1.30;;
4359;SDS011;2193;47.980;7.660;2022-09-29T15:01:30;2.33;;;1.60;;
4359;SDS011;2193;47.980;7.660;2022-09-29T15:03:56;4.63;;;1.60;;
4359;SDS011;2193;47.980;7.660;2022-09-29T15:06:26;1.57;;;1.47;;
4359;SDS011;2193;47.980;7.660;2022-09-29T15:13:55;1.70;;;1.60;;
4359;SDS011;2193;47.980;7.660;2022-09-29T15:16:23;2.83;;;1.47;;
4359;SDS011;2193;47.980;7.660;2022-09-29T15:19:12;2.70;;;1.73;;
4359;SDS011;2193;47.980;7.660;2022-09-29T15:21:42;1.47;;;1.30;;
4359;SDS011;2193;47.980;7.660;2022-09-29T15:26:41;2.37;;;2.00;;
4359;SDS011;2193;47.980;7.660;2022-09-29T15:29:07;7.47;;;3.17;;
4359;SDS011;2193;47.980;7.660;2022-09-29T15:31:33;5.20;;;2.70;;
4359;SDS011;2193;47.980;7.660;2022-09-29T15:34:00;3.80;;;1.77;;
4359;SDS011;2193;47.980;7.660;2022-09-29T15:36:32;2.13;;;1.20;;
4359;SDS011;2193;47.980;7.660;2022-09-29T15:39:01;1.43;;;1.10;;
4359;SDS011;2193;47.980;7.660;2022-09-29T15:41:29;1.57;;;1.00;;
4359;SDS011;2193;47.980;7.660;2022-09-29T15:43:56;1.10;;;1.00;;
4359;SDS011;2193;47.980;7.660;2022-09-29T15:51:32;2.40;;;1.40;;
4359;SDS011;2193;47.980;7.660;2022-09-29T15:53:57;6.70;;;1.50;;
4359;SDS011;2193;47.980;7.660;2022-09-29T15:56:28;1.30;;;1.20;;
4359;SDS011;2193;47.980;7.660;2022-09-29T15:58:54;1.47;;;1.37;;
4359;SDS011;2193;47.980;7.660;2022-09-29T16:01:19;2.60;;;1.43;;
4359;SDS011;2193;47.980;7.660;2022-09-29T16:03:46;3.37;;;1.60;;
4359;SDS011;2193;47.980;7.660;2022-09-29T16:06:30;2.10;;;1.30;;
4359;SDS011;2193;47.980;7.660;2022-09-29T16:08:57;1.40;;;1.10;;
4359;SDS011;2193;47.980;7.660;2022-09-29T16:11:25;3.50;;;1.20;;
4359;SDS011;2193;47.980;7.660;2022-09-29T16:13:57;2.03;;;1.20;;
4359;SDS011;2193;47.980;7.660;2022-09-29T16:16:24;1.63;;;1.33;;
4359;SDS011;2193;47.980;7.660;2022-09-29T16:18:50;4.43;;;1.80;;
4359;SDS011;2193;47.980;7.660;2022-09-29T16:21:20;2.00;;;1.50;;
4359;SDS011;2193;47.980;7.660;2022-09-29T16:23:49;2.90;;;1.53;;
4359;SDS011;2193;47.980;7.660;2022-09-29T16:26:16;1.90;;;1.50;;
4359;SDS011;2193;47.980;7.660;2022-09-29T16:31:22;11.27;;;5.90;;
4359;SDS011;2193;47.980;7.660;2022-09-29T16:33:51;6.27;;;4.13;;
4359;SDS011;2193;47.980;7.660;2022-09-29T16:36:19;10.23;;;5.80;;
4359;SDS011;2193;47.980;7.660;2022-09-29T16:38:46;4.13;;;3.40;;
4359;SDS011;2193;47.980;7.660;2022-09-29T16:41:19;4.33;;;2.40;;
4359;SDS011;2193;47.980;7.660;2022-09-29T16:43:44;8.50;;;7.23;;
4359;SDS011;2193;47.980;7.660;2022-09-29T16:46:13;6.20;;;5.17;;
4359;SDS011;2193;47.980;7.660;2022-09-29T16:48:40;5.93;;;5.17;;
4359;SDS011;2193;47.980;7.660;2022-09-29T16:51:16;9.30;;;6.80;;
4359;SDS011;2193;47.980;7.660;2022-09-29T16:53:42;8.03;;;5.23;;
4359;SDS011;2193;47.980;7.660;2022-09-29T16:56:09;8.30;;;4.80;;
4359;SDS011;2193;47.980;7.660;2022-09-29T16:58:42;6.07;;;4.20;;
4359;SDS011;2193;47.980;7.660;2022-09-29T17:01:07;5.47;;;4.60;;
4359;SDS011;2193;47.980;7.660;2022-09-29T17:03:33;5.50;;;4.97;;
4359;SDS011;2193;47.980;7.660;2022-09-29T17:05:59;6.23;;;4.57;;
4359;SDS011;2193;47.980;7.660;2022-09-29T17:08:28;5.40;;;4.67;;
4359;SDS011;2193;47.980;7.660;2022-09-29T17:10:55;7.07;;;3.60;;
4359;SDS011;2193;47.980;7.660;2022-09-29T17:13:21;6.27;;;3.50;;
4359;SDS011;2193;47.980;7.660;2022-09-29T17:15:48;5.87;;;3.50;;
4359;SDS011;2193;47.980;7.660;2022-09-29T17:18:15;11.67;;;4.30;;
4359;SDS011;2193;47.980;7.660;2022-09-29T17:20:41;9.27;;;4.03;;
4359;SDS011;2193;47.980;7.660;2022-09-29T17:23:06;3.97;;;3.50;;
4359;SDS011;2193;47.980;7.660;2022-09-29T17:25:33;5.47;;;4.10;;
4359;SDS011;2193;47.980;7.660;2022-09-29T17:27:59;8.80;;;5.07;;
4359;SDS011;2193;47.980;7.660;2022-09-29T17:30:46;9.00;;;5.40;;
4359;SDS011;2193;47.980;7.660;2022-09-29T17:33:13;20.13;;;12.60;;
4359;SDS011;2193;47.980;7.660;2022-09-29T17:35:40;17.70;;;11.63;;
4359;SDS011;2193;47.980;7.660;2022-09-29T17:38:06;12.57;;;7.80;;
4359;SDS011;2193;47.980;7.660;2022-09-29T17:40:37;9.30;;;6.10;;
4359;SDS011;2193;47.980;7.660;2022-09-29T17:43:04;10.23;;;6.80;;
4359;SDS011;2193;47.980;7.660;2022-09-29T17:45:29;7.37;;;5.60;;
4359;SDS011;2193;47.980;7.660;2022-09-29T17:47:59;12.00;;;6.10;;
4359;SDS011;2193;47.980;7.660;2022-09-29T17:50:26;7.77;;;5.33;;
4359;SDS011;2193;47.980;7.660;2022-09-29T17:52:52;12.80;;;7.57;;
4359;SDS011;2193;47.980;7.660;2022-09-29T17:55:17;10.30;;;7.10;;
4359;SDS011;2193;47.980;7.660;2022-09-29T17:57:43;6.20;;;5.00;;
4359;SDS011;2193;47.980;7.660;2022-09-29T18:00:25;7.30;;;5.80;;
4359;SDS011;2193;47.980;7.660;2022-09-29T18:02:50;9.60;;;6.60;;
4359;SDS011;2193;47.980;7.660;2022-09-29T18:05:17;6.77;;;5.90;;
4359;SDS011;2193;47.980;7.660;2022-09-29T18:07:52;11.30;;;8.67;;
4359;SDS011;2193;47.980;7.660;2022-09-29T18:10:25;12.10;;;8.20;;
4359;SDS011;2193;47.980;7.660;2022-09-29T18:12:51;11.20;;;8.07;;
4359;SDS011;2193;47.980;7.660;2022-09-29T18:15:16;11.07;;;6.43;;
4359;SDS011;2193;47.980;7.660;2022-09-29T18:17:42;7.50;;;6.43;;
4359;SDS011;2193;47.980;7.660;2022-09-29T18:20:14;8.83;;;7.10;;
4359;SDS011;2193;47.980;7.660;2022-09-29T18:22:40;12.57;;;8.47;;
4359;SDS011;2193;47.980;7.660;2022-09-29T18:25:08;3.90;;;3.60;;
4359;SDS011;2193;47.980;7.660;2022-09-29T18:27:33;2.60;;;2.40;;
4359;SDS011;2193;47.980;7.660;2022-09-29T18:29:59;5.97;;;2.27;;
4359;SDS011;2193;47.980;7.660;2022-09-29T18:32:25;3.33;;;1.83;;